createdAt,value
2024-05-09T00:02:59.811Z,100740
2024-05-09T00:05:59.966Z,100740
2024-05-09T00:08:59.755Z,100730
2024-05-09T00:12:00.001Z,100730
2024-05-09T00:14:59.792Z,100730
2024-05-09T00:17:59.976Z,100730
2024-05-09T00:20:59.826Z,100730
2024-05-09T00:23:59.758Z,100730
2024-05-09T00:26:59.785Z,100720
2024-05-09T00:29:59.815Z,100720
2024-05-09T00:32:59.796Z,100730
2024-05-09T00:35:59.777Z,100720
2024-05-09T00:38:59.727Z,100720
2024-05-09T00:41:59.787Z,100720
2024-05-09T00:44:59.736Z,100720
2024-05-09T00:48:01.765Z,100720
2024-05-09T00:51:00.565Z,100710
2024-05-09T00:54:00.412Z,100710
2024-05-09T00:57:01.698Z,100710
2024-05-09T01:00:00.184Z,100720
2024-05-09T01:02:59.884Z,100720
2024-05-09T01:05:59.871Z,100720
2024-05-09T01:08:59.758Z,100730
2024-05-09T01:11:59.792Z,100730
2024-05-09T01:14:59.743Z,100730
2024-05-09T01:18:00.339Z,100730
2024-05-09T01:20:59.888Z,100730
2024-05-09T01:23:59.739Z,100720
2024-05-09T01:26:59.746Z,100720
2024-05-09T01:29:59.722Z,100720
2024-05-09T01:32:59.995Z,100730
2024-05-09T01:35:59.712Z,100730
2024-05-09T01:38:59.739Z,100730
2024-05-09T01:41:59.735Z,100730
2024-05-09T01:44:59.789Z,100730
2024-05-09T01:48:00.145Z,100730
2024-05-09T01:50:59.782Z,100730
2024-05-09T01:54:01.058Z,100730
2024-05-09T01:56:59.756Z,100740
2024-05-09T01:59:59.719Z,100740
2024-05-09T02:03:00.858Z,100730
2024-05-09T02:06:00.708Z,100730
2024-05-09T02:09:00.549Z,100730
2024-05-09T02:12:00.883Z,100730
2024-05-09T02:15:00.588Z,100730
2024-05-09T02:18:00.972Z,100730
2024-05-09T02:21:00.864Z,100730
2024-05-09T02:24:00.508Z,100730
2024-05-09T02:27:00.594Z,100730
2024-05-09T02:30:00.738Z,100730
2024-05-09T02:33:00.881Z,100720
2024-05-09T02:36:00.525Z,100720
2024-05-09T02:39:00.626Z,100720
2024-05-09T02:42:00.551Z,100720
2024-05-09T02:45:00.542Z,100720
2024-05-09T02:48:01.463Z,100720
2024-05-09T02:51:00.584Z,100710
2024-05-09T02:54:00.613Z,100710
2024-05-09T02:57:00.553Z,100710
2024-05-09T03:00:00.536Z,100710
2024-05-09T03:03:00.754Z,100710
2024-05-09T03:06:01.085Z,100710
2024-05-09T03:09:00.523Z,100720
2024-05-09T03:12:00.683Z,100710
2024-05-09T03:15:00.536Z,100710
2024-05-09T03:18:00.888Z,100710
2024-05-09T03:21:00.669Z,100710
2024-05-09T03:24:00.542Z,100710
2024-05-09T03:27:00.497Z,100710
2024-05-09T03:30:00.661Z,100710
2024-05-09T03:33:00.846Z,100720
2024-05-09T03:36:01.468Z,100720
2024-05-09T03:39:00.522Z,100710
2024-05-09T03:42:00.532Z,100710
2024-05-09T03:45:00.562Z,100710
2024-05-09T03:48:00.703Z,100710
2024-05-09T03:51:00.593Z,100710
2024-05-09T03:54:00.566Z,100710
2024-05-09T03:57:00.727Z,100710
2024-05-09T04:00:00.502Z,100710
2024-05-09T04:03:00.783Z,100710
2024-05-09T04:06:00.569Z,100710
2024-05-09T04:09:00.569Z,100720
2024-05-09T04:12:00.810Z,100720
2024-05-09T04:15:00.507Z,100730
2024-05-09T04:18:01.625Z,100730
2024-05-09T04:21:01.909Z,100730
2024-05-09T04:24:00.492Z,100720
2024-05-09T04:27:00.473Z,100720
2024-05-09T04:30:00.693Z,100720
2024-05-09T04:33:01.425Z,100720
2024-05-09T04:36:00.512Z,100720
2024-05-09T04:39:00.454Z,100720
2024-05-09T04:42:00.483Z,100720
2024-05-09T04:45:00.513Z,100720
2024-05-09T04:48:01.277Z,100730
2024-05-09T04:51:00.786Z,100730
2024-05-09T04:54:00.574Z,100730
2024-05-09T04:57:00.529Z,100730
2024-05-09T05:00:00.452Z,100730
2024-05-09T05:03:00.611Z,100740
2024-05-09T05:06:00.501Z,100740
2024-05-09T05:09:00.577Z,100740
2024-05-09T05:12:00.635Z,100740
2024-05-09T05:15:00.509Z,100740
2024-05-09T05:18:00.771Z,100740
2024-05-09T05:21:00.543Z,100740
2024-05-09T05:24:00.446Z,100740
2024-05-09T05:27:00.471Z,100750
2024-05-09T05:30:00.525Z,100750
2024-05-09T05:33:00.937Z,100750
2024-05-09T05:36:00.429Z,100760
2024-05-09T05:39:00.455Z,100760
2024-05-09T05:42:00.449Z,100760
2024-05-09T05:45:00.565Z,100760
2024-05-09T05:48:02.236Z,100760
2024-05-09T05:51:03.867Z,100760
2024-05-09T05:54:00.499Z,100760
2024-05-09T05:57:00.504Z,100770
2024-05-09T06:00:00.554Z,100760
2024-05-09T06:03:00.651Z,100760
2024-05-09T06:06:01.329Z,100760
2024-05-09T06:09:00.496Z,100770
2024-05-09T06:12:00.961Z,100760
2024-05-09T06:15:00.464Z,100770
2024-05-09T06:18:00.817Z,100770
2024-05-09T06:21:02.114Z,100770
2024-05-09T06:24:02.517Z,100760
2024-05-09T06:27:00.455Z,100760
2024-05-09T06:30:00.510Z,100760
2024-05-09T06:33:00.666Z,100760
2024-05-09T06:36:00.422Z,100760
2024-05-09T06:39:00.513Z,100760
2024-05-09T06:42:00.494Z,100760
2024-05-09T06:45:00.491Z,100760
2024-05-09T06:48:00.786Z,100760
2024-05-09T06:51:00.571Z,100750
2024-05-09T06:54:00.492Z,100750
2024-05-09T06:57:00.470Z,100760
2024-05-09T07:00:00.616Z,100760
2024-05-09T07:03:03.639Z,100760
2024-05-09T07:06:00.453Z,100760
2024-05-09T07:09:00.440Z,100760
2024-05-09T07:12:00.592Z,100760
2024-05-09T07:15:00.447Z,100760
2024-05-09T07:18:00.636Z,100760
2024-05-09T07:21:00.547Z,100760
2024-05-09T07:24:00.456Z,100750
2024-05-09T07:27:00.422Z,100750
2024-05-09T07:30:00.424Z,100750
2024-05-09T07:33:00.862Z,100740
2024-05-09T07:36:00.532Z,100750
2024-05-09T07:39:00.417Z,100740
2024-05-09T07:42:00.419Z,100740
2024-05-09T07:45:20.549Z,100740
2024-05-09T07:53:00.966Z,100730
2024-05-09T07:54:01.410Z,100730
2024-05-09T07:57:00.622Z,100730
2024-05-09T08:00:00.486Z,100740
2024-05-09T08:03:00.471Z,100730
2024-05-09T08:06:00.396Z,100730
2024-05-09T08:09:05.308Z,100720
2024-05-09T08:12:00.436Z,100720
2024-05-09T08:15:00.416Z,100720
2024-05-09T08:18:01.075Z,100720
2024-05-09T08:21:00.442Z,100720
2024-05-09T08:24:00.447Z,100710
2024-05-09T08:27:00.701Z,100710
2024-05-09T08:30:00.468Z,100710
2024-05-09T08:33:00.521Z,100710
2024-05-09T08:36:00.452Z,100710
2024-05-09T08:39:00.415Z,100700
2024-05-09T08:42:00.728Z,100700
2024-05-09T08:45:00.652Z,100700
2024-05-09T08:48:01.518Z,100690
2024-05-09T08:51:00.519Z,100690
2024-05-09T08:54:00.426Z,100690
2024-05-09T08:57:01.258Z,100690
2024-05-09T09:00:04.888Z,100690
2024-05-09T09:03:01.663Z,100690
2024-05-09T09:06:01.264Z,100690
2024-05-09T09:09:02.162Z,100680
2024-05-09T09:12:00.455Z,100690
2024-05-09T09:15:00.475Z,100680
2024-05-09T09:18:01.109Z,100680
2024-05-09T09:21:00.445Z,100680
2024-05-09T09:24:00.396Z,100680
2024-05-09T09:27:00.442Z,100680
2024-05-09T09:30:00.385Z,100680
2024-05-09T09:33:00.572Z,100680
2024-05-09T09:36:01.674Z,100680
2024-05-09T09:39:01.422Z,100670
2024-05-09T09:42:01.481Z,100670
2024-05-09T09:45:04.741Z,100670
2024-05-09T09:48:00.890Z,100660
2024-05-09T09:51:00.563Z,100670
2024-05-09T09:54:01.990Z,100670
2024-05-09T09:57:02.012Z,100660
2024-05-09T10:00:00.658Z,100660
2024-05-09T10:03:00.992Z,100670
2024-05-09T10:06:00.920Z,100670
2024-05-09T10:09:00.608Z,100660
2024-05-09T10:12:09.532Z,100660
2024-05-09T10:15:06.171Z,100660
2024-05-09T10:18:04.124Z,100660
2024-05-09T10:21:00.399Z,100660
2024-05-09T10:24:02.254Z,100650
2024-05-09T10:27:02.704Z,100650
2024-05-09T10:30:01.501Z,100650
2024-05-09T10:33:00.400Z,100650
2024-05-09T10:36:01.946Z,100650
2024-05-09T10:39:00.618Z,100640
2024-05-09T10:42:00.498Z,100640
2024-05-09T10:45:00.730Z,100630
2024-05-09T10:48:00.602Z,100630
2024-05-09T10:51:00.438Z,100620
2024-05-09T10:54:00.407Z,100620
2024-05-09T10:57:00.379Z,100620
2024-05-09T11:00:00.440Z,100620
2024-05-09T11:03:00.510Z,100630
2024-05-09T11:06:00.763Z,100630
2024-05-09T11:09:00.507Z,100620
2024-05-09T11:12:01.230Z,100620
2024-05-09T11:15:00.399Z,100610
2024-05-09T11:18:00.521Z,100610
2024-05-09T11:21:00.413Z,100610
2024-05-09T11:24:00.416Z,100610
2024-05-09T11:27:02.550Z,100610
2024-05-09T11:30:00.429Z,100610
2024-05-09T11:33:00.549Z,100610
2024-05-09T11:36:00.442Z,100600
2024-05-09T11:39:00.386Z,100600
2024-05-09T11:42:00.425Z,100600
2024-05-09T11:45:00.396Z,100600
2024-05-09T11:48:00.552Z,100590
2024-05-09T11:51:00.345Z,100590
2024-05-09T11:54:00.512Z,100590
2024-05-09T11:57:00.426Z,100590
2024-05-09T12:00:00.307Z,100580
2024-05-09T12:03:00.388Z,100570
2024-05-09T12:06:00.749Z,100570
2024-05-09T12:09:00.390Z,100560
2024-05-09T12:12:00.360Z,100550
2024-05-09T12:15:00.397Z,100550
2024-05-09T12:18:03.481Z,100550
2024-05-09T12:21:00.814Z,100550
2024-05-09T12:24:00.329Z,100550
2024-05-09T12:27:00.352Z,100540
2024-05-09T12:30:00.414Z,100540
2024-05-09T12:33:00.462Z,100540
2024-05-09T12:36:00.387Z,100530
2024-05-09T12:39:00.969Z,100530
2024-05-09T12:42:00.406Z,100530
2024-05-09T12:45:00.326Z,100540
2024-05-09T12:48:00.728Z,100530
2024-05-09T12:51:00.314Z,100520
2024-05-09T12:54:00.400Z,100520
2024-05-09T12:57:00.359Z,100520
2024-05-09T13:00:00.390Z,100530
2024-05-09T13:03:00.715Z,100520
2024-05-09T13:06:00.446Z,100520
2024-05-09T13:09:00.372Z,100520
2024-05-09T13:12:00.484Z,100510
2024-05-09T13:15:00.283Z,100510
2024-05-09T13:18:02.998Z,100510
2024-05-09T13:21:00.311Z,100500
2024-05-09T13:24:00.539Z,100510
2024-05-09T13:27:00.446Z,100500
2024-05-09T13:30:00.302Z,100500
2024-05-09T13:33:00.414Z,100500
2024-05-09T13:36:00.312Z,100480
2024-05-09T13:39:00.451Z,100480
2024-05-09T13:42:00.331Z,100480
2024-05-09T13:45:00.341Z,100470
2024-05-09T13:48:00.564Z,100470
2024-05-09T13:51:00.381Z,100470
2024-05-09T13:54:00.402Z,100470
2024-05-09T13:57:00.309Z,100470
2024-05-09T14:00:00.304Z,100450
2024-05-09T14:03:00.620Z,100450
2024-05-09T14:06:00.430Z,100450
2024-05-09T14:09:00.427Z,100450
2024-05-09T14:12:00.285Z,100450
2024-05-09T14:15:00.372Z,100440
2024-05-09T14:18:00.354Z,100440
2024-05-09T14:21:00.933Z,100430
2024-05-09T14:24:00.279Z,100440
2024-05-09T14:27:00.366Z,100430
2024-05-09T14:30:00.371Z,100430
2024-05-09T14:33:00.380Z,100420
2024-05-09T14:36:00.298Z,100420
2024-05-09T14:39:00.349Z,100420
2024-05-09T14:42:00.251Z,100420
2024-05-09T14:45:00.285Z,100410
2024-05-09T14:48:00.533Z,100410
2024-05-09T14:51:00.371Z,100400
2024-05-09T14:54:00.297Z,100400
2024-05-09T14:57:00.310Z,100400
2024-05-09T15:00:00.245Z,100400
2024-05-09T15:03:00.724Z,100390
2024-05-09T15:06:00.344Z,100390
2024-05-09T15:09:00.303Z,100400
2024-05-09T15:12:00.648Z,100380
2024-05-09T15:15:00.306Z,100380
2024-05-09T15:18:00.504Z,100380
2024-05-09T15:21:00.321Z,100370
2024-05-09T15:24:00.284Z,100360
2024-05-09T15:27:00.262Z,100360
2024-05-09T15:30:00.330Z,100360
2024-05-09T15:33:01.327Z,100360
2024-05-09T15:36:00.275Z,100360
2024-05-09T15:39:00.318Z,100370
2024-05-09T15:42:01.298Z,100370
2024-05-09T15:45:00.312Z,100370
2024-05-09T15:48:01.051Z,100360
2024-05-09T15:51:00.307Z,100370
2024-05-09T15:54:00.294Z,100370
2024-05-09T15:57:00.274Z,100350
2024-05-09T16:00:00.321Z,100350
2024-05-09T16:03:00.289Z,100350
2024-05-09T16:06:00.346Z,100350
2024-05-09T16:09:00.334Z,100350
2024-05-09T16:12:00.310Z,100350
2024-05-09T16:15:00.276Z,100350
2024-05-09T16:18:00.420Z,100350
2024-05-09T16:21:00.555Z,100350
2024-05-09T16:24:00.268Z,100350
2024-05-09T16:27:00.279Z,100350
2024-05-09T16:30:00.258Z,100350
2024-05-09T16:33:00.365Z,100340
2024-05-09T16:36:00.262Z,100340
2024-05-09T16:39:00.241Z,100340
2024-05-09T16:42:00.401Z,100340
2024-05-09T16:45:00.240Z,100340
2024-05-09T16:48:00.643Z,100340
2024-05-09T16:51:00.239Z,100330
2024-05-09T16:54:00.264Z,100330
2024-05-09T16:57:00.304Z,100340
2024-05-09T17:00:00.204Z,100340
2024-05-09T17:03:00.315Z,100330
2024-05-09T17:06:00.312Z,100330
2024-05-09T17:09:08.323Z,100340
2024-05-09T17:12:00.253Z,100340
2024-05-09T17:18:00.718Z,100340
2024-05-09T17:21:00.253Z,100340
2024-05-09T17:24:00.240Z,100330
2024-05-09T17:27:00.280Z,100340
2024-05-09T17:30:00.240Z,100340
2024-05-09T17:33:00.412Z,100340
2024-05-09T17:36:00.245Z,100330
2024-05-09T17:39:00.274Z,100330
2024-05-09T17:42:00.238Z,100330
2024-05-09T17:45:00.383Z,100340
2024-05-09T17:48:00.505Z,100340
2024-05-09T17:51:00.259Z,100340
2024-05-09T17:54:00.223Z,100340
2024-05-09T17:57:00.239Z,100340
2024-05-09T18:00:00.241Z,100340
2024-05-09T18:03:00.377Z,100340
2024-05-09T18:06:00.289Z,100340
2024-05-09T18:09:00.181Z,100340
2024-05-09T18:12:00.290Z,100340
2024-05-09T18:15:00.630Z,100350
2024-05-09T18:18:00.786Z,100350
2024-05-09T18:21:00.240Z,100360
2024-05-09T18:24:00.447Z,100360
2024-05-09T18:27:00.243Z,100350
2024-05-09T18:30:00.258Z,100350
2024-05-09T18:33:00.369Z,100350
2024-05-09T18:36:00.249Z,100360
2024-05-09T18:39:00.179Z,100360
2024-05-09T18:42:00.194Z,100360
2024-05-09T18:45:00.304Z,100360
2024-05-09T18:48:00.487Z,100360
2024-05-09T18:51:00.252Z,100360
2024-05-09T18:54:00.317Z,100360
2024-05-09T18:57:00.307Z,100360
2024-05-09T19:00:00.175Z,100370
2024-05-09T19:03:00.389Z,100370
2024-05-09T19:06:01.419Z,100370
2024-05-09T19:09:00.287Z,100370
2024-05-09T19:12:00.256Z,100370
2024-05-09T19:15:00.258Z,100380
2024-05-09T19:18:00.320Z,100380
2024-05-09T19:21:00.231Z,100380
2024-05-09T19:24:00.200Z,100390
2024-05-09T19:27:00.232Z,100390
2024-05-09T19:30:00.213Z,100390
2024-05-09T19:33:00.343Z,100400
2024-05-09T19:36:00.207Z,100400
2024-05-09T19:39:00.167Z,100400
2024-05-09T19:42:00.186Z,100400
2024-05-09T19:45:00.226Z,100400
2024-05-09T19:48:00.630Z,100400
2024-05-09T19:51:00.237Z,100410
2024-05-09T19:54:00.177Z,100410
2024-05-09T19:57:00.195Z,100400
2024-05-09T20:00:00.312Z,100400
2024-05-09T20:03:00.265Z,100400
2024-05-09T20:06:00.202Z,100400
2024-05-09T20:09:00.256Z,100400
2024-05-09T20:12:00.277Z,100410
2024-05-09T20:15:00.228Z,100410
2024-05-09T20:18:00.455Z,100410
2024-05-09T20:21:00.626Z,100410
2024-05-09T20:24:00.194Z,100410
2024-05-09T20:27:00.136Z,100420
2024-05-09T20:30:00.197Z,100420
2024-05-09T20:33:01.539Z,100410
2024-05-09T20:36:01.786Z,100410
2024-05-09T20:39:00.160Z,100420
2024-05-09T20:42:00.849Z,100420
2024-05-09T20:45:00.173Z,100420
2024-05-09T20:48:00.489Z,100420
2024-05-09T20:51:00.155Z,100420
2024-05-09T20:54:00.174Z,100420
2024-05-09T20:57:00.182Z,100420
2024-05-09T21:00:00.154Z,100420
2024-05-09T21:03:00.201Z,100420
2024-05-09T21:06:00.151Z,100420
2024-05-09T21:09:00.196Z,100420
2024-05-09T21:12:00.202Z,100420
2024-05-09T21:15:00.155Z,100420
2024-05-09T21:18:00.286Z,100420
2024-05-09T21:21:00.178Z,100420
2024-05-09T21:24:00.162Z,100410
2024-05-09T21:27:00.115Z,100410
2024-05-09T21:30:00.154Z,100410
2024-05-09T21:33:00.197Z,100410
2024-05-09T21:36:00.139Z,100410
2024-05-09T21:39:00.133Z,100420
2024-05-09T21:42:00.173Z,100420
2024-05-09T21:45:00.159Z,100410
2024-05-09T21:48:02.674Z,100410
2024-05-09T21:51:00.136Z,100410
2024-05-09T21:54:00.147Z,100410
2024-05-09T21:57:00.176Z,100410
2024-05-09T22:00:00.166Z,100410
2024-05-09T22:03:00.254Z,100410
2024-05-09T22:06:00.136Z,100410
2024-05-09T22:09:00.142Z,100410
2024-05-09T22:12:00.233Z,100410
2024-05-09T22:15:00.178Z,100410
2024-05-09T22:18:00.283Z,100410
2024-05-09T22:21:00.182Z,100410
2024-05-09T22:24:00.124Z,100410
2024-05-09T22:27:00.128Z,100410
2024-05-09T22:30:00.118Z,100410
2024-05-09T22:33:00.257Z,100410
2024-05-09T22:36:00.135Z,100400
2024-05-09T22:39:00.141Z,100400
2024-05-09T22:42:00.103Z,100400
2024-05-09T22:45:00.270Z,100400
2024-05-09T22:48:00.489Z,100400
2024-05-09T22:51:00.120Z,100400
2024-05-09T22:54:01.553Z,100400
2024-05-09T22:57:00.167Z,100400
2024-05-09T23:00:00.119Z,100410
2024-05-09T23:03:00.326Z,100400
2024-05-09T23:06:04.375Z,100400
2024-05-09T23:09:00.144Z,100400
2024-05-09T23:12:00.164Z,100400
2024-05-09T23:15:00.130Z,100400
2024-05-09T23:18:00.277Z,100400
2024-05-09T23:21:00.211Z,100400
2024-05-09T23:24:00.093Z,100400
2024-05-09T23:27:00.146Z,100400
2024-05-09T23:30:00.133Z,100400
2024-05-09T23:33:00.261Z,100400
2024-05-09T23:36:00.148Z,100400
2024-05-09T23:39:00.103Z,100400
2024-05-09T23:42:00.107Z,100400
2024-05-09T23:45:00.155Z,100400
2024-05-09T23:48:00.299Z,100390
2024-05-09T23:51:00.191Z,100390
2024-05-09T23:54:00.069Z,100390
2024-05-09T23:57:00.152Z,100390
